Time;durP1;ratioP1;P1;durP2;ratioP2;P2;SDS_P1;SDS_P2;PMS_P1;PMS_P2;Temp;Humidity;BMP_temperature;BMP_pressure;BME280_temperature;BME280_humidity;BME280_pressure;Samples;Min_cycle;Max_cycle;Signal;HPM_P1;HPM_P2
2023/10/09 00:00:36;;;;;;;;;;;;;;;22.39;38.20;99956.09;3170407;28;19935;-63
2023/10/09 00:01:58;;;;;;;;;;;;;;;22.37;38.18;99952.75;3170165;28;19933;-63
2023/10/09 00:03:29;;;;;;;;;;;;;;;22.34;38.00;99953.03;3170704;28;19927;-63
2023/10/09 00:05:02;;;;;;;;;;;;;;;22.32;38.09;99957.63;3170556;28;20018;-63
2023/10/09 00:06:37;;;;;;;;;;;;;;;22.30;38.32;99951.63;3170418;28;19931;-63
2023/10/09 00:08:09;;;;;;;;;;;;;;;22.29;38.33;99943.81;3167926;28;19932;-63
2023/10/09 00:09:47;;;;;;;;;;;;;;;22.28;38.36;99942.16;3162748;28;20439;-63
2023/10/09 00:11:18;;;;;;;;;;;;;;;22.25;38.27;99944.09;3168528;28;20289;-63
2023/10/09 00:12:50;;;;;;;;;;;;;;;22.25;38.56;99948.56;3170585;28;20460;-63
2023/10/09 00:14:23;;;;;;;;;;;;;;;22.25;38.33;99945.91;3170538;28;19965;-64
2023/10/09 00:15:59;;;;;;;;;;;;;;;22.24;38.48;99942.44;3170494;28;20401;-63
2023/10/09 00:17:31;;;;;;;;;;;;;;;22.24;38.25;99944.22;3170572;28;20081;-63
2023/10/09 00:19:13;;;;;;;;;;;;;;;22.23;38.41;99945.22;3170467;28;19928;-63
2023/10/09 00:20:53;;;;;;;;;;;;;;;22.22;38.34;99948.84;3170806;28;19924;-63
2023/10/09 00:22:28;;;;;;;;;;;;;;;22.21;38.20;99945.38;3170718;28;19927;-63
2023/10/09 00:24:03;;;;;;;;;;;;;;;22.18;38.33;99934.19;3170487;28;19935;-63
2023/10/09 00:25:36;;;;;;;;;;;;;;;22.16;38.46;99939.59;3170311;28;20461;-63
2023/10/09 00:27:12;;;;;;;;;;;;;;;22.13;38.47;99939.88;3170266;28;19939;-62
2023/10/09 00:28:44;;;;;;;;;;;;;;;22.12;38.44;99942.66;3170287;28;19931;-62
2023/10/09 00:30:19;;;;;;;;;;;;;;;22.10;38.66;99947.28;3170367;28;19942;-63
2023/10/09 00:31:51;;;;;;;;;;;;;;;22.07;38.70;99953.72;3169627;28;19923;-62
2023/10/09 00:33:23;;;;;;;;;;;;;;;22.04;38.50;99946.03;3164138;28;19923;-63
2023/10/09 00:34:58;;;;;;;;;;;;;;;22.00;38.63;99942.81;3170456;28;19924;-63
2023/10/09 00:36:29;;;;;;;;;;;;;;;21.98;38.67;99942.13;3169997;28;19976;-63
2023/10/09 00:38:32;;;;;;;;;;;;;;;21.95;38.71;99942.41;3170349;28;20025;-62
2023/10/09 00:39:56;;;;;;;;;;;;;;;21.94;38.76;99938.06;3168905;27;19946;-63
2023/10/09 00:41:29;;;;;;;;;;;;;;;21.93;38.55;99943.50;3168285;28;19928;-63
2023/10/09 00:43:05;;;;;;;;;;;;;;;21.90;38.81;99949.09;3165351;28;19934;-62
2023/10/09 00:44:41;;;;;;;;;;;;;;;21.86;38.95;99955.63;3168333;28;19928;-63
2023/10/09 00:46:23;;;;;;;;;;;;;;;21.81;38.89;99946.28;3169898;28;19923;-63
2023/10/09 00:47:58;;;;;;;;;;;;;;;21.77;38.77;99944.91;3169627;28;19931;-63
2023/10/09 00:49:31;;;;;;;;;;;;;;;21.76;39.03;99952.97;3165350;28;20385;-63
2023/10/09 00:51:04;;;;;;;;;;;;;;;21.75;39.08;99948.66;3161590;28;19927;-63
2023/10/09 00:52:43;;;;;;;;;;;;;;;21.74;38.89;99950.47;3170212;28;19927;-62
2023/10/09 00:54:14;;;;;;;;;;;;;;;21.73;38.86;99956.72;3170050;28;20411;-62
2023/10/09 00:55:55;;;;;;;;;;;;;;;21.72;38.96;99954.22;3169899;28;19923;-62
2023/10/09 00:57:26;;;;;;;;;;;;;;;21.69;38.79;99954.50;3172815;28;19928;-63
2023/10/09 00:59:08;;;;;;;;;;;;;;;21.68;38.89;99958.13;3172467;28;20419;-63
2023/10/09 01:00:46;;;;;;;;;;;;;;;21.66;38.79;99952.97;3172692;28;19930;-63
2023/10/09 01:02:19;;;;;;;;;;;;;;;21.66;38.92;99960.09;3172589;28;19974;-63
2023/10/09 01:03:51;;;;;;;;;;;;;;;21.67;38.60;99945.84;3172456;28;19938;-63
2023/10/09 01:05:26;;;;;;;;;;;;;;;21.68;38.50;99953.69;3172556;27;19924;-63
2023/10/09 01:07:08;;;;;;;;;;;;;;;21.68;38.44;99956.31;3172677;28;20014;-63
2023/10/09 01:08:43;;;;;;;;;;;;;;;21.69;38.38;99955.34;3172554;28;20011;-63
2023/10/09 01:10:16;;;;;;;;;;;;;;;21.71;38.19;99963.13;3168007;28;19931;-63
2023/10/09 01:12:03;;;;;;;;;;;;;;;21.70;38.27;99964.97;3168555;28;19934;-63
2023/10/09 01:13:52;;;;;;;;;;;;;;;21.70;37.99;99977.38;3163391;28;20145;-63
2023/10/09 01:15:43;;;;;;;;;;;;;;;21.71;38.08;99977.25;3172334;28;19989;-63
2023/10/09 01:17:29;;;;;;;;;;;;;;;21.71;37.99;99979.91;3171956;28;19923;-63
2023/10/09 01:19:13;;;;;;;;;;;;;;;21.71;37.99;99987.84;3172347;28;19987;-63
2023/10/09 01:20:45;;;;;;;;;;;;;;;21.72;37.94;99988.69;3172038;28;19946;-62
2023/10/09 01:22:21;;;;;;;;;;;;;;;21.71;37.85;99992.28;3172030;27;20330;-63
2023/10/09 01:24:03;;;;;;;;;;;;;;;21.72;37.79;99991.34;3172099;28;19927;-63
2023/10/09 01:25:42;;;;;;;;;;;;;;;21.74;37.74;99997.31;3168679;28;19951;-63
2023/10/09 01:27:15;;;;;;;;;;;;;;;21.73;37.95;99998.31;3172306;28;19924;-62
2023/10/09 01:28:46;;;;;;;;;;;;;;;21.71;37.66;99998.47;3165829;28;20497;-63
2023/10/09 01:30:17;;;;;;;;;;;;;;;21.70;37.73;99998.59;3167375;28;19924;-63
2023/10/09 01:31:52;;;;;;;;;;;;;;;21.69;37.58;100005.69;3171405;28;20000;-63
2023/10/09 01:33:26;;;;;;;;;;;;;;;21.68;37.92;100006.69;3172432;28;19953;-62
2023/10/09 01:34:57;;;;;;;;;;;;;;;21.67;37.84;100018.25;3171987;28;19927;-63
2023/10/09 01:36:32;;;;;;;;;;;;;;;21.67;37.79;100012.94;3171945;28;20342;-62
2023/10/09 01:38:10;;;;;;;;;;;;;;;21.67;37.71;100017.41;3172106;28;19949;-62
2023/10/09 01:39:44;;;;;;;;;;;;;;;21.65;37.71;100022.00;3171471;28;19923;-62
2023/10/09 01:41:19;;;;;;;;;;;;;;;21.60;37.74;100027.72;3164076;28;19924;-62
2023/10/09 01:42:51;;;;;;;;;;;;;;;21.55;37.84;100029.91;3159502;28;19924;-62
2023/10/09 01:44:22;;;;;;;;;;;;;;;21.52;37.85;100024.88;3167224;28;20542;-62
2023/10/09 01:45:53;;;;;;;;;;;;;;;21.51;37.94;100029.34;3170854;28;19938;-62
2023/10/09 01:47:25;;;;;;;;;;;;;;;21.51;37.94;100029.34;3171455;28;19923;-62
2023/10/09 01:48:59;;;;;;;;;;;;;;;21.49;37.94;100030.47;3171467;28;19928;-62
2023/10/09 01:50:31;;;;;;;;;;;;;;;21.49;38.10;100033.09;3169450;28;19924;-62
2023/10/09 01:52:07;;;;;;;;;;;;;;;21.46;37.82;100033.38;3171868;28;20027;-63
2023/10/09 01:53:38;;;;;;;;;;;;;;;21.43;37.99;100034.47;3172071;28;19934;-62
2023/10/09 01:55:13;;;;;;;;;;;;;;;21.36;38.41;100046.59;3171726;28;19934;-63
2023/10/09 01:56:46;;;;;;;;;;;;;;;21.30;38.59;100036.50;3171785;28;19996;-62
2023/10/09 01:58:24;;;;;;;;;;;;;;;21.23;38.69;100048.56;3171890;28;19924;-63
2023/10/09 01:59:54;;;;;;;;;;;;;;;21.13;38.78;100052.00;3171833;28;19928;-63
2023/10/09 02:01:26;;;;;;;;;;;;;;;21.08;39.03;100051.56;3171663;28;19937;-62
2023/10/09 02:03:02;;;;;;;;;;;;;;;21.02;39.13;100057.38;3167127;28;19928;-62
2023/10/09 02:04:34;;;;;;;;;;;;;;;20.98;39.20;100061.25;3164236;28;19931;-62
2023/10/09 02:06:17;;;;;;;;;;;;;;;20.96;39.06;100057.06;3171669;28;19928;-62
2023/10/09 02:07:52;;;;;;;;;;;;;;;20.94;38.97;100062.50;3170997;28;19995;-63
2023/10/09 02:09:30;;;;;;;;;;;;;;;20.92;39.19;100064.44;3171362;28;19923;-63
2023/10/09 02:11:03;;;;;;;;;;;;;;;20.91;38.93;100065.38;3165645;28;19923;-63
2023/10/09 02:12:35;;;;;;;;;;;;;;;20.86;39.12;100073.72;3163427;28;19924;-64
2023/10/09 02:14:18;;;;;;;;;;;;;;;20.85;39.20;100084.41;3171738;28;19935;-63
2023/10/09 02:15:54;;;;;;;;;;;;;;;20.82;39.35;100089.97;3171906;28;19973;-64
2023/10/09 02:17:29;;;;;;;;;;;;;;;20.79;39.37;100090.22;3171611;28;20312;-64
2023/10/09 02:18:59;;;;;;;;;;;;;;;20.73;39.68;100102.16;3171919;28;19931;-64
2023/10/09 02:20:31;;;;;;;;;;;;;;;20.66;39.95;100107.13;3171837;28;19932;-63
2023/10/09 02:22:12;;;;;;;;;;;;;;;20.61;39.99;100108.47;3171908;28;19930;-64
2023/10/09 02:23:49;;;;;;;;;;;;;;;20.54;40.73;100120.53;3171842;28;20423;-63
2023/10/09 02:25:22;;;;;;;;;;;;;;;20.31;41.74;100138.22;3165581;28;20355;-63
2023/10/09 02:27:07;;;;;;;;;;;;;;;19.96;42.51;100155.91;3171279;28;20411;-64
2023/10/09 02:28:39;;;;;;;;;;;;;;;19.70;42.46;100152.69;3172019;27;19924;-63
2023/10/09 02:30:19;;;;;;;;;;;;;;;19.48;43.09;100171.13;3171814;28;19946;-63
2023/10/09 02:31:51;;;;;;;;;;;;;;;19.25;43.33;100165.78;3171443;28;19932;-64
2023/10/09 02:33:27;;;;;;;;;;;;;;;19.05;43.51;100175.22;3171764;28;19924;-64
2023/10/09 02:35:08;;;;;;;;;;;;;;;18.86;43.73;100175.72;3171481;28;19924;-64
2023/10/09 02:36:49;;;;;;;;;;;;;;;18.68;43.72;100184.13;3171304;28;19935;-64
2023/10/09 02:38:22;;;;;;;;;;;;;;;18.47;43.84;100194.44;3171772;28;20014;-64
2023/10/09 02:39:55;;;;;;;;;;;;;;;18.30;44.00;100201.72;3170045;28;19930;-64
2023/10/09 02:41:30;;;;;;;;;;;;;;;18.15;44.00;100195.75;3167029;28;19958;-65
2023/10/09 02:43:03;;;;;;;;;;;;;;;18.00;44.06;100214.44;3166968;28;19985;-64
2023/10/09 02:44:39;;;;;;;;;;;;;;;17.87;44.21;100215.28;3170416;28;19953;-65
2023/10/09 02:46:17;;;;;;;;;;;;;;;17.72;44.29;100218.94;3171046;28;19981;-64
2023/10/09 02:47:48;;;;;;;;;;;;;;;17.58;44.53;100221.66;3171227;28;19923;-64
2023/10/09 02:49:21;;;;;;;;;;;;;;;17.40;44.84;100221.97;3167918;28;19928;-64
2023/10/09 02:50:51;;;;;;;;;;;;;;;17.28;44.95;100228.88;3162364;28;19927;-64
2023/10/09 02:52:25;;;;;;;;;;;;;;;17.19;44.91;100226.84;3171140;28;19923;-64
2023/10/09 02:53:57;;;;;;;;;;;;;;;17.14;44.98;100242.09;3171525;28;19963;-64
2023/10/09 02:55:29;;;;;;;;;;;;;;;17.04;45.02;100243.66;3171293;28;20001;-64
2023/10/09 02:57:08;;;;;;;;;;;;;;;16.93;45.20;100260.13;3171494;28;19927;-64
2023/10/09 02:58:42;;;;;;;;;;;;;;;16.78;45.41;100254.06;3171464;28;20516;-65
2023/10/09 03:00:18;;;;;;;;;;;;;;;16.68;45.42;100266.09;3171270;28;20384;-65
2023/10/09 03:01:52;;;;;;;;;;;;;;;16.57;45.69;100274.63;3170653;28;19991;-63
2023/10/09 03:03:25;;;;;;;;;;;;;;;16.49;45.94;100257.66;3171625;28;19973;-63
2023/10/09 03:04:56;;;;;;;;;;;;;;;16.38;45.77;100248.63;3171351;28;20696;-63
2023/10/09 03:06:30;;;;;;;;;;;;;;;16.31;46.25;100252.59;3171013;28;20392;-63
2023/10/09 03:08:02;;;;;;;;;;;;;;;16.26;46.24;100253.81;3170965;28;19927;-63
2023/10/09 03:09:34;;;;;;;;;;;;;;;16.18;46.44;100266.56;3171522;28;19977;-63
2023/10/09 03:11:12;;;;;;;;;;;;;;;16.10;46.30;100257.38;3162989;28;19924;-63
2023/10/09 03:12:43;;;;;;;;;;;;;;;16.03;46.52;100273.59;3163173;28;19927;-63
2023/10/09 03:14:16;;;;;;;;;;;;;;;15.98;46.56;100273.88;3168058;28;20002;-63
2023/10/09 03:15:48;;;;;;;;;;;;;;;15.95;46.35;100274.06;3171230;28;19932;-63
2023/10/09 03:17:19;;;;;;;;;;;;;;;15.94;46.72;100277.63;3169867;28;20027;-63
2023/10/09 03:18:52;;;;;;;;;;;;;;;15.90;46.50;100278.75;3170996;28;19930;-63
2023/10/09 03:20:24;;;;;;;;;;;;;;;15.84;46.68;100272.06;3171082;28;19934;-63
2023/10/09 03:21:57;;;;;;;;;;;;;;;15.79;46.84;100283.78;3169398;28;19928;-63
2023/10/09 03:23:29;;;;;;;;;;;;;;;15.77;46.77;100281.28;3167262;28;19977;-62
2023/10/09 03:25:01;;;;;;;;;;;;;;;15.77;46.80;100291.78;3170003;28;19924;-63
2023/10/09 03:26:31;;;;;;;;;;;;;;;15.76;46.70;100286.59;3171063;28;20007;-61
2023/10/09 03:28:03;;;;;;;;;;;;;;;15.73;46.88;100295.50;3171072;28;19947;-62
2023/10/09 03:29:37;;;;;;;;;;;;;;;15.70;46.93;100300.94;3170258;28;19928;-63
2023/10/09 03:31:10;;;;;;;;;;;;;;;15.66;46.69;100296.75;3170615;28;20003;-62
2023/10/09 03:32:40;;;;;;;;;;;;;;;15.63;47.00;100295.16;3170746;28;20354;-62
2023/10/09 03:34:12;;;;;;;;;;;;;;;15.63;46.86;100300.41;3170763;28;20023;-63
2023/10/09 03:35:42;;;;;;;;;;;;;;;15.61;46.79;100304.91;3161943;28;20318;-63
2023/10/09 03:37:33;;;;;;;;;;;;;;;15.59;46.88;100321.69;3167698;28;19924;-64
2023/10/09 03:39:13;;;;;;;;;;;;;;;15.54;47.03;100310.59;3170609;28;19973;-65
2023/10/09 03:40:49;;;;;;;;;;;;;;;15.46;47.25;100305.78;3163725;28;20401;-66
2023/10/09 03:42:20;;;;;;;;;;;;;;;15.43;46.90;100305.97;3170655;28;19924;-66
2023/10/09 03:43:52;;;;;;;;;;;;;;;15.42;47.03;100309.53;3170513;28;20068;-66
2023/10/09 03:45:25;;;;;;;;;;;;;;;15.41;47.03;100313.06;3168351;28;20350;-68
2023/10/09 03:46:58;;;;;;;;;;;;;;;15.42;46.89;100314.78;3169623;28;20196;-67
2023/10/09 03:48:32;;;;;;;;;;;;;;;15.38;47.15;100316.75;3170777;28;20377;-65
2023/10/09 03:50:23;;;;;;;;;;;;;;;15.34;47.44;100317.00;3169573;28;19923;-67
2023/10/09 03:51:55;;;;;;;;;;;;;;;15.29;47.40;100332.13;3168820;28;20026;-68
2023/10/09 03:53:26;;;;;;;;;;;;;;;15.28;47.08;100339.16;3170615;28;19978;-66
2023/10/09 03:54:57;;;;;;;;;;;;;;;15.23;47.28;100331.56;3170345;28;19928;-68
2023/10/09 03:56:28;;;;;;;;;;;;;;;15.21;47.62;100332.59;3170548;28;20010;-66
2023/10/09 03:58:00;;;;;;;;;;;;;;;15.16;47.68;100327.59;3170499;28;19928;-68
2023/10/09 03:59:32;;;;;;;;;;;;;;;15.11;47.61;100329.59;3170588;28;19927;-70
2023/10/09 04:01:13;;;;;;;;;;;;;;;15.08;47.46;100335.03;3170488;28;20415;-69
2023/10/09 04:02:44;;;;;;;;;;;;;;;15.05;47.45;100350.94;3170123;28;19992;-69
2023/10/09 04:04:16;;;;;;;;;;;;;;;15.01;47.29;100341.56;3170622;28;19924;-67
2023/10/09 04:05:47;;;;;;;;;;;;;;;14.97;47.49;100353.16;3170318;28;19927;-68
2023/10/09 04:07:37;;;;;;;;;;;;;;;14.92;47.50;100369.13;3170360;28;19924;-68
2023/10/09 04:09:14;;;;;;;;;;;;;;;14.85;47.77;100359.91;3166678;28;19923;-66
2023/10/09 04:10:51;;;;;;;;;;;;;;;14.82;47.50;100353.97;3166713;28;19939;-68
2023/10/09 04:12:24;;;;;;;;;;;;;;;14.79;47.54;100347.13;3167293;28;19981;-70
2023/10/09 04:13:59;;;;;;;;;;;;;;;14.78;47.53;100348.88;3170250;28;19923;-69
2023/10/09 04:15:30;;;;;;;;;;;;;;;14.78;47.57;100354.13;3165388;28;19924;-66
2023/10/09 04:17:05;;;;;;;;;;;;;;;14.76;47.38;100358.63;3167681;28;20327;-65
2023/10/09 04:18:38;;;;;;;;;;;;;;;14.75;47.65;100351.66;3167339;28;19934;-64
2023/10/09 04:21:08;;;;;;;;;;;;;;;14.78;47.54;100351.50;3170412;28;19995;-66
2023/10/09 04:22:27;;;;;;;;;;;;;;;14.78;47.50;100359.38;3157829;28;20359;-66
2023/10/09 04:24:08;;;;;;;;;;;;;;;14.80;47.45;100372.41;3157729;28;19931;-70
2023/10/09 04:25:45;;;;;;;;;;;;;;;14.78;47.39;100371.63;3157953;28;19924;-70
2023/10/09 04:27:17;;;;;;;;;;;;;;;14.76;47.28;100368.28;3170126;28;19961;-66
2023/10/09 04:28:51;;;;;;;;;;;;;;;14.75;47.33;100374.41;3170565;28;20344;-68
2023/10/09 04:30:23;;;;;;;;;;;;;;;14.73;47.54;100376.28;3170133;28;19924;-67
2023/10/09 04:31:56;;;;;;;;;;;;;;;14.69;47.34;100380.84;3172455;28;19924;-67
2023/10/09 04:33:28;;;;;;;;;;;;;;;14.68;47.12;100384.41;3173110;28;19934;-68
2023/10/09 04:35:22;;;;;;;;;;;;;;;14.66;46.98;100394.09;3165871;28;20411;-70
2023/10/09 04:36:56;;;;;;;;;;;;;;;14.64;46.72;100389.88;3160344;28;19924;-70
2023/10/09 04:38:34;;;;;;;;;;;;;;;14.62;46.85;100392.59;3172841;28;19927;-69
2023/10/09 04:40:12;;;;;;;;;;;;;;;14.60;46.81;100399.66;3166628;28;20401;-69
2023/10/09 04:41:52;;;;;;;;;;;;;;;14.55;46.59;100388.56;3167408;28;20388;-69
2023/10/09 04:43:22;;;;;;;;;;;;;;;14.52;46.46;100394.84;3167995;28;19931;-70
2023/10/09 04:45:19;;;;;;;;;;;;;;;14.42;46.46;100384.88;3170123;28;20361;-69
2023/10/09 04:48:39;;;;;;;;;;;;;;;14.39;46.27;100393.75;3172577;28;20105;-69
2023/10/09 04:50:11;;;;;;;;;;;;;;;14.37;46.47;100392.13;3170161;28;19936;-70
2023/10/09 04:51:58;;;;;;;;;;;;;;;14.34;46.34;100396.63;3172492;28;20388;-69
2023/10/09 04:53:30;;;;;;;;;;;;;;;14.31;46.22;100406.38;3172999;27;19928;-69
2023/10/09 04:55:18;;;;;;;;;;;;;;;14.29;46.30;100405.63;3171881;28;20312;-69
2023/10/09 04:56:53;;;;;;;;;;;;;;;14.30;46.34;100415.16;3172478;28;19927;-69
2023/10/09 04:58:24;;;;;;;;;;;;;;;14.28;46.30;100417.84;3172538;28;19924;-69
2023/10/09 04:59:58;;;;;;;;;;;;;;;14.27;45.98;100420.56;3171926;28;19966;-70
2023/10/09 05:01:35;;;;;;;;;;;;;;;14.25;45.94;100423.25;3171893;28;19924;-69
2023/10/09 05:03:10;;;;;;;;;;;;;;;14.24;46.01;100421.56;3166119;28;19928;-69
2023/10/09 05:04:47;;;;;;;;;;;;;;;14.25;45.67;100428.50;3169850;28;19935;-70
2023/10/09 05:06:21;;;;;;;;;;;;;;;14.24;45.67;100431.22;3172152;28;19928;-69
2023/10/09 05:07:56;;;;;;;;;;;;;;;14.21;45.79;100423.50;3167071;28;19927;-69
2023/10/09 05:09:55;;;;;;;;;;;;;;;14.19;45.78;100434.03;3169829;27;20015;-73
2023/10/09 05:13:08;;;;;;;;;;;;;;;14.19;45.82;100426.19;3159425;28;19928;-69
2023/10/09 05:14:39;;;;;;;;;;;;;;;14.19;45.37;100430.56;3170404;28;19939;-69
2023/10/09 05:16:15;;;;;;;;;;;;;;;14.15;45.34;100436.91;3172143;28;19951;-68
2023/10/09 05:17:56;;;;;;;;;;;;;;;14.13;45.47;100431.72;3171719;28;19928;-68
2023/10/09 05:21:36;;;;;;;;;;;;;;;14.12;45.43;100422.19;3167520;28;20030;-67
2023/10/09 05:23:25;;;;;;;;;;;;;;;14.14;45.37;100433.44;3171893;28;20320;-67
2023/10/09 05:24:58;;;;;;;;;;;;;;;14.15;45.12;100437.75;3172272;28;19928;-69
2023/10/09 05:26:50;;;;;;;;;;;;;;;14.19;44.99;100439.28;3171706;28;19984;-69
2023/10/09 05:30:35;;;;;;;;;;;;;;;14.23;44.71;100453.09;3155956;27;19921;-70
2023/10/09 05:32:15;;;;;;;;;;;;;;;14.21;44.34;100453.16;3146637;28;19978;-71
2023/10/09 05:33:45;;;;;;;;;;;;;;;14.18;44.02;100455.94;3152352;28;19932;-71
2023/10/09 05:35:19;;;;;;;;;;;;;;;14.13;43.92;100459.69;3151725;28;19972;-69
2023/10/09 05:36:50;;;;;;;;;;;;;;;14.10;43.79;100465.94;3155540;28;20334;-69
2023/10/09 05:38:23;;;;;;;;;;;;;;;14.07;43.61;100466.94;3155230;28;19928;-67
2023/10/09 05:40:22;;;;;;;;;;;;;;;14.06;43.27;100470.47;3146898;28;20343;-66
2023/10/09 05:41:59;;;;;;;;;;;;;;;14.03;43.17;100488.97;3142733;28;19956;-68
2023/10/09 05:49:09;;;;;;;;;;;;;;;14.02;43.11;100476.78;3152123;28;20011;-66
2023/10/09 05:51:10;;;;;;;;;;;;;;;14.03;43.32;100482.88;3146695;28;19925;-64
2023/10/09 05:53:00;;;;;;;;;;;;;;;14.03;43.20;100480.25;3155168;28;19936;-64
2023/10/09 06:03:48;;;;;;;;;;;;;;;14.09;43.14;100504.38;3139202;28;19925;-65
2023/10/09 06:07:13;;;;;;;;;;;;;;;14.23;43.28;100505.50;3154340;28;19933;-67
2023/10/09 06:09:10;;;;;;;;;;;;;;;14.31;42.86;100512.03;3152248;28;19931;-66
2023/10/09 06:10:40;;;;;;;;;;;;;;;14.41;42.58;100516.84;3143499;28;19936;-66
2023/10/09 06:14:04;;;;;;;;;;;;;;;14.52;42.53;100523.28;3148672;28;19924;-66
2023/10/09 06:17:50;;;;;;;;;;;;;;;14.61;42.08;100528.94;3153511;28;19935;-66
2023/10/09 06:19:26;;;;;;;;;;;;;;;14.65;42.22;100536.59;3144790;28;19925;-68
2023/10/09 06:21:09;;;;;;;;;;;;;;;14.66;42.11;100540.91;3152362;28;19928;-66
2023/10/09 06:23:15;;;;;;;;;;;;;;;14.64;41.62;100553.25;3155200;28;20527;-67
2023/10/09 06:24:54;;;;;;;;;;;;;;;14.59;41.93;100555.25;3144142;28;20413;-65
2023/10/09 06:26:26;;;;;;;;;;;;;;;14.56;41.71;100558.88;3154823;28;19976;-64
2023/10/09 06:27:57;;;;;;;;;;;;;;;14.53;41.69;100569.50;3154640;28;19928;-64
2023/10/09 06:29:35;;;;;;;;;;;;;;;14.51;41.64;100573.09;3151965;28;19935;-64
2023/10/09 06:31:27;;;;;;;;;;;;;;;14.47;41.67;100582.03;3161585;28;20011;-63
2023/10/09 06:33:29;;;;;;;;;;;;;;;14.45;41.76;100576.03;3154004;28;19943;-63
2023/10/09 06:37:03;;;;;;;;;;;;;;;14.38;41.74;100577.25;3151667;28;19932;-64
2023/10/09 06:39:50;;;;;;;;;;;;;;;14.34;41.95;100595.75;3163678;28;19956;-63
2023/10/09 06:42:55;;;;;;;;;;;;;;;14.30;41.86;100603.81;3142956;28;20243;-64
2023/10/09 06:52:56;;;;;;;;;;;;;;;14.45;41.58;100603.06;3137669;28;19931;-64
2023/10/09 06:54:15;;;;;;;;;;;;;;;14.51;41.52;100613.28;3151671;28;20388;-66
2023/10/09 06:55:49;;;;;;;;;;;;;;;14.49;41.90;100620.34;3152303;28;19935;-67
2023/10/09 06:59:15;;;;;;;;;;;;;;;14.47;41.73;100626.59;3157958;28;20408;-66
2023/10/09 07:01:08;;;;;;;;;;;;;;;14.45;41.67;100628.44;3158995;28;19928;-66
2023/10/09 07:02:53;;;;;;;;;;;;;;;14.45;41.58;100631.91;3146584;28;19925;-66
2023/10/09 07:07:12;;;;;;;;;;;;;;;14.47;41.53;100627.44;3155708;28;20014;-65
2023/10/09 07:11:57;;;;;;;;;;;;;;;14.48;41.85;100634.38;3137378;28;19929;-66
2023/10/09 07:13:38;;;;;;;;;;;;;;;14.51;41.84;100644.72;3136411;28;19924;-66
2023/10/09 07:30:35;;;;;;;;;;;;;;;15.02;41.46;100640.50;3126085;28;20011;-65
2023/10/09 07:32:19;;;;;;;;;;;;;;;15.28;41.19;100633.06;3115644;28;19965;-65
2023/10/09 07:44:36;;;;;;;;;;;;;;;17.95;38.23;100641.63;3109356;28;19926;-66
2023/10/09 07:46:51;;;;;;;;;;;;;;;18.49;37.21;100639.09;3131262;28;19976;-65
2023/10/09 07:48:57;;;;;;;;;;;;;;;19.19;36.13;100636.22;3066524;28;20021;-64
2023/10/09 07:50:57;;;;;;;;;;;;;;;19.56;35.06;100639.00;3149009;28;20331;-67
2023/10/09 07:52:29;;;;;;;;;;;;;;;19.92;34.71;100635.59;3150004;28;20417;-66
2023/10/09 07:54:07;;;;;;;;;;;;;;;20.36;34.53;100638.63;3154245;28;20024;-65
2023/10/09 07:55:45;;;;;;;;;;;;;;;20.84;33.66;100631.53;3147840;28;20416;-67
2023/10/09 07:57:16;;;;;;;;;;;;;;;21.32;33.49;100627.94;3154660;28;19986;-68
2023/10/09 07:58:48;;;;;;;;;;;;;;;21.55;32.60;100637.63;3145996;28;20442;-69
2023/10/09 08:00:36;;;;;;;;;;;;;;;21.41;32.11;100627.25;3145901;28;20118;-65
2023/10/09 08:02:13;;;;;;;;;;;;;;;21.36;32.13;100626.78;3139008;28;19968;-68
2023/10/09 08:03:46;;;;;;;;;;;;;;;21.39;31.93;100625.72;3157890;28;19932;-68
2023/10/09 08:05:22;;;;;;;;;;;;;;;21.47;32.09;100618.81;3133789;28;20307;-67
2023/10/09 08:06:53;;;;;;;;;;;;;;;21.71;32.24;100626.69;3133315;28;19924;-66
2023/10/09 08:14:03;;;;;;;;;;;;;;;22.98;30.54;100619.97;3098042;28;19973;-66
2023/10/09 08:15:51;;;;;;;;;;;;;;;23.17;30.53;100622.78;3153592;28;19924;-66
2023/10/09 08:17:23;;;;;;;;;;;;;;;23.27;29.91;100612.19;3148046;28;19932;-66
2023/10/09 08:18:56;;;;;;;;;;;;;;;23.30;30.21;100610.13;3153890;28;19970;-66
2023/10/09 08:20:36;;;;;;;;;;;;;;;23.35;29.88;100615.88;3157730;28;19924;-66
2023/10/09 08:22:42;;;;;;;;;;;;;;;23.46;29.84;100625.59;3158469;28;20522;-67
2023/10/09 08:26:12;;;;;;;;;;;;;;;23.92;29.73;100618.13;3157720;28;20324;-67
2023/10/09 08:27:54;;;;;;;;;;;;;;;23.75;28.94;100624.91;3134354;28;20360;-67
2023/10/09 08:29:34;;;;;;;;;;;;;;;23.36;29.06;100622.88;3158214;28;19924;-67
2023/10/09 08:31:19;;;;;;;;;;;;;;;23.19;29.91;100620.84;3151836;28;19925;-67
2023/10/09 08:33:00;;;;;;;;;;;;;;;23.42;29.74;100620.69;3146914;28;19928;-68
2023/10/09 08:34:48;;;;;;;;;;;;;;;23.64;29.91;100607.22;3155790;28;20012;-65
2023/10/09 08:36:22;;;;;;;;;;;;;;;23.96;29.75;100607.09;3157367;28;19932;-67
2023/10/09 08:37:53;;;;;;;;;;;;;;;24.19;29.54;100609.50;3158210;28;19931;-66
2023/10/09 08:46:00;;;;;;;;;;;;;;;24.69;28.91;100604.94;3111456;28;19964;-66
2023/10/09 08:52:22;;;;;;;;;;;;;;;24.57;29.32;100600.72;3038619;29;20426;-65
2023/10/09 08:54:24;;;;;;;;;;;;;;;24.70;29.14;100593.31;3069300;28;19926;-65
2023/10/09 09:03:02;;;;;;;;;;;;;;;25.08;28.68;100585.38;3027902;29;19928;-64
2023/10/09 09:05:15;;;;;;;;;;;;;;;24.98;28.56;100591.59;3043131;29;19952;-65
2023/10/09 09:06:46;;;;;;;;;;;;;;;24.65;28.75;100581.41;3079167;28;19937;-66
2023/10/09 09:08:26;;;;;;;;;;;;;;;24.62;29.23;100576.34;3106692;28;19929;-66
2023/10/09 09:09:57;;;;;;;;;;;;;;;24.82;29.40;100579.84;3113347;28;20416;-67
2023/10/09 09:11:35;;;;;;;;;;;;;;;25.01;29.04;100577.13;3117247;28;20019;-66
2023/10/09 09:13:18;;;;;;;;;;;;;;;25.05;28.79;100585.69;3150120;28;19924;-66
2023/10/09 09:14:50;;;;;;;;;;;;;;;25.13;28.91;100570.69;3157092;28;19924;-66
2023/10/09 09:16:22;;;;;;;;;;;;;;;25.14;28.87;100564.38;3157343;28;19928;-66
2023/10/09 09:18:05;;;;;;;;;;;;;;;24.92;28.48;100572.66;3147036;28;19928;-67
2023/10/09 09:19:37;;;;;;;;;;;;;;;24.77;29.01;100569.59;3157167;28;20027;-66
2023/10/09 09:21:21;;;;;;;;;;;;;;;24.85;28.59;100563.59;3157430;28;20280;-67
2023/10/09 09:22:56;;;;;;;;;;;;;;;24.80;28.99;100569.31;3156838;28;20266;-67
2023/10/09 09:24:33;;;;;;;;;;;;;;;24.89;28.66;100571.13;3154406;28;19928;-66
2023/10/09 09:26:11;;;;;;;;;;;;;;;24.71;28.22;100567.50;3150768;28;19982;-66
2023/10/09 09:27:52;;;;;;;;;;;;;;;24.20;28.54;100572.13;3157521;28;19935;-66
2023/10/09 09:29:24;;;;;;;;;;;;;;;24.12;29.28;100571.94;3156356;28;20378;-66
2023/10/09 09:31:08;;;;;;;;;;;;;;;24.15;29.24;100569.00;3157622;28;20432;-67
2023/10/09 09:33:15;;;;;;;;;;;;;;;24.11;28.96;100554.31;3147158;28;19932;-67
2023/10/09 09:34:46;;;;;;;;;;;;;;;24.02;29.06;100553.31;3157200;28;19947;-67
2023/10/09 09:36:18;;;;;;;;;;;;;;;24.10;29.13;100557.09;3157012;28;20374;-67
2023/10/09 09:37:54;;;;;;;;;;;;;;;24.26;29.19;100558.25;3157377;28;20356;-67
2023/10/09 09:39:30;;;;;;;;;;;;;;;24.47;29.17;100551.97;3157704;28;20312;-67
2023/10/09 09:41:07;;;;;;;;;;;;;;;24.66;29.10;100545.78;3141983;28;20420;-66
2023/10/09 09:42:44;;;;;;;;;;;;;;;24.66;28.82;100551.13;3147202;28;19925;-66
2023/10/09 09:44:17;;;;;;;;;;;;;;;24.50;28.95;100549.03;3139722;28;19936;-66
2023/10/09 09:45:50;;;;;;;;;;;;;;;24.36;28.90;100549.41;3149603;28;19928;-66
2023/10/09 09:47:26;;;;;;;;;;;;;;;23.97;29.26;100549.38;3149170;28;19963;-67
2023/10/09 09:49:00;;;;;;;;;;;;;;;23.72;29.62;100545.41;3150335;28;19974;-65
2023/10/09 09:50:32;;;;;;;;;;;;;;;23.66;29.60;100541.44;3152211;28;19950;-66
2023/10/09 09:52:09;;;;;;;;;;;;;;;23.58;29.86;100544.78;3157475;28;19924;-63
2023/10/09 09:53:41;;;;;;;;;;;;;;;23.57;29.61;100542.25;3155373;28;19981;-67
2023/10/09 09:55:22;;;;;;;;;;;;;;;23.41;29.80;100536.59;3148741;28;20085;-66
2023/10/09 09:56:54;;;;;;;;;;;;;;;23.36;30.31;100537.00;3157384;28;19924;-64
2023/10/09 09:58:32;;;;;;;;;;;;;;;23.28;30.30;100532.38;3160144;28;20353;-69
2023/10/09 10:00:08;;;;;;;;;;;;;;;23.21;30.24;100530.34;3155041;28;19928;-71